Etusivu
METAR-TAF:

METAR-TAF

Lentoasemat :

Wellingtonin kansainvälinen lentoasema

Wellington, Uusi-Seelanti

Leveyspiiri: 41-20S, Pituuspiiri: 174-48E, korkeus merenpinnasta: 12 m

Tämänhetkinen sää

Tämä raportti tehtiin 33 minuuttia sitten, kello 12.30 UTC
Tuuli 4 kn pohjoisesta/koillisesta, vaihdellen pohjoisen ja idän/koillisen välillä
Lämpötila 4°C
Kosteus 87%
Ilmanpaine 1018 hPa
Näkyvyys 10 km tai enemmän

METAR: NZWN 221230Z AUTO 03004KT 360V070 9999 FEW032/// 04/02 Q1018 NOSIG

Aika: 01:03 (13:03 UTC)

Sääennuste

Tämä raportti tehtiin 1 tunti ja 54 minuuttia sitten, kello 11.09 UTC
Ennuste voimassa 22. päivästä klo 12 UTC - 23. päivään klo 12 UTC
Tuuli 5 kn pohjoisesta
Näkyvyys 10 km tai enemmän
Muutamia pilviä 3000 ft:n korkeudessa
Tulossa
23. päivästä klo 02 UTC - 23. päivään klo 04 UTC
Tuuli 15 kn pohjoisen/luoteesta

TAF: NZWN 221109Z 2212/2312 01005KT 9999 FEW030 BECMG 2302/2304 34015KT

Säähavainnot ja -ennusteet yli 4000 lentoasemalta (METAR- ja TAF-raportit).

Käytössä olevat sääasemat on merkitty karttaan keltaisilla ja punaisilla pisteillä.

Aseta hiiri pisteen päälle nähdäksesi sääaseman nimen.

Klikkaa sitten nähdäksesi säähavainnot ja -ennusteet.

Kartan vaihtaminen: klikkaa mustalla rastilla varustettuja vihreitä pisteitä, niin voit zoomata sisään; viivalla varustettua vihreää pistettä, niin voit zoomata ulos tai vihreitä nuolia, niin pääset viereisille kartoille.


METAR-TAF: